createdAt,value
2023-02-06T00:02:04.745Z,96942.34
2023-02-06T00:04:31.168Z,96945.88
2023-02-06T00:06:57.534Z,96936.25
2023-02-06T00:09:23.903Z,96945.00
2023-02-06T00:11:50.307Z,96950.13
2023-02-06T00:14:16.675Z,96947.06
2023-02-06T00:16:43.666Z,96951.22
2023-02-06T00:19:10.079Z,96956.91
2023-02-06T00:21:36.525Z,96949.97
2023-02-06T00:24:03.388Z,96941.66
2023-02-06T00:26:30.792Z,96950.50
2023-02-06T00:28:57.209Z,96960.69
2023-02-06T00:31:24.340Z,96965.00
2023-02-06T00:33:51.618Z,96965.66
2023-02-06T00:36:18.456Z,96968.09
2023-02-06T00:38:44.861Z,96965.47
2023-02-06T00:41:11.321Z,96964.47
2023-02-06T00:43:37.790Z,96969.00
2023-02-06T00:46:04.456Z,96958.81
2023-02-06T00:48:30.996Z,96963.88
2023-02-06T00:50:58.030Z,96966.34
2023-02-06T00:53:24.500Z,96956.88
2023-02-06T00:55:51.665Z,96962.56
2023-02-06T00:58:21.398Z,96961.06
2023-02-06T01:00:47.847Z,96965.03
2023-02-06T01:03:14.274Z,96949.94
2023-02-06T01:05:42.029Z,96965.84
2023-02-06T01:08:09.075Z,96966.44
2023-02-06T01:10:35.674Z,96966.84
2023-02-06T01:13:02.186Z,96965.94
2023-02-06T01:15:28.762Z,96976.75
2023-02-06T01:17:55.974Z,96975.03
2023-02-06T01:20:23.149Z,96977.66
2023-02-06T01:22:49.708Z,96978.47
2023-02-06T01:25:16.868Z,96973.50
2023-02-06T01:27:43.304Z,96968.38
2023-02-06T01:30:11.241Z,96970.91
2023-02-06T01:32:38.402Z,96971.06
2023-02-06T01:35:06.408Z,96974.91
2023-02-06T01:37:34.413Z,96971.66
2023-02-06T01:40:00.833Z,96968.97
2023-02-06T01:42:27.946Z,96973.41
2023-02-06T01:45:17.181Z,96975.13
2023-02-06T01:47:43.585Z,96976.13
2023-02-06T01:50:10.126Z,96979.06
2023-02-06T01:52:36.517Z,96969.44
2023-02-06T01:55:04.833Z,96974.66
2023-02-06T01:57:33.624Z,96971.41
2023-02-06T02:00:04.707Z,96960.59
2023-02-06T02:02:42.558Z,96961.56
2023-02-06T02:05:11.042Z,96960.59
2023-02-06T02:07:44.218Z,96959.88
2023-02-06T02:10:10.738Z,96956.53
2023-02-06T02:12:37.769Z,96963.13
2023-02-06T02:15:04.815Z,96961.22
2023-02-06T02:17:38.452Z,96948.97
2023-02-06T02:20:31.479Z,96950.69
2023-02-06T02:23:11.130Z,96948.59
2023-02-06T02:26:02.859Z,96952.13
2023-02-06T02:29:08.340Z,96956.28
2023-02-06T02:31:58.773Z,96966.38
2023-02-06T02:35:05.033Z,96957.91
2023-02-06T02:37:47.634Z,96963.38
2023-02-06T02:40:23.087Z,96946.44
2023-02-06T02:42:58.432Z,96951.31
2023-02-06T02:45:32.922Z,96930.50
2023-02-06T02:48:06.271Z,96927.97
2023-02-06T02:50:35.200Z,96931.38
2023-02-06T02:53:03.242Z,96939.16
2023-02-06T02:55:29.764Z,96935.34
2023-02-06T02:58:05.431Z,96932.75
2023-02-06T03:00:36.423Z,96936.59
2023-02-06T03:03:07.398Z,96930.56
2023-02-06T03:05:40.947Z,96943.44
2023-02-06T03:08:18.528Z,96946.59
2023-02-06T03:10:55.268Z,96942.84
2023-02-06T03:13:29.414Z,96938.78
2023-02-06T03:16:01.861Z,96944.09
2023-02-06T03:18:35.048Z,96950.41
2023-02-06T03:21:06.036Z,96949.94
2023-02-06T03:23:41.186Z,96948.94
2023-02-06T03:26:12.073Z,96952.75
2023-02-06T03:28:42.178Z,96944.72
2023-02-06T03:31:12.526Z,96957.06
2023-02-06T03:33:58.839Z,96951.13
2023-02-06T03:36:26.040Z,96967.19
2023-02-06T03:38:53.369Z,96968.50
2023-02-06T03:41:25.543Z,96957.66
2023-02-06T03:43:53.633Z,96970.25
2023-02-06T03:46:21.582Z,96969.09
2023-02-06T03:48:53.587Z,96973.19
2023-02-06T03:51:28.019Z,96980.09
2023-02-06T03:53:58.033Z,96980.00
2023-02-06T03:56:32.350Z,96980.25
2023-02-06T03:58:58.963Z,96997.66
2023-02-06T04:01:25.884Z,96997.50
2023-02-06T04:03:52.497Z,96997.56
2023-02-06T04:06:19.379Z,96990.91
2023-02-06T04:08:45.987Z,96999.31
2023-02-06T04:11:13.037Z,97000.22
2023-02-06T04:13:39.441Z,97001.72
2023-02-06T04:16:06.060Z,97001.13
2023-02-06T04:18:32.620Z,97000.72
2023-02-06T04:21:03.245Z,96997.56
2023-02-06T04:23:31.351Z,96990.91
2023-02-06T04:25:57.897Z,96983.88
2023-02-06T04:28:25.004Z,96973.09
2023-02-06T04:30:51.485Z,96970.66
2023-02-06T04:33:17.960Z,96977.16
2023-02-06T04:35:44.435Z,96963.78
2023-02-06T04:38:10.828Z,96967.72
2023-02-06T04:40:37.222Z,96966.13
2023-02-06T04:43:03.688Z,96958.94
2023-02-06T04:45:30.766Z,96944.44
2023-02-06T04:47:59.403Z,96948.16
2023-02-06T04:50:28.689Z,96950.78
2023-02-06T04:52:55.091Z,96951.59
2023-02-06T04:55:22.076Z,96939.00
2023-02-06T04:57:48.576Z,96959.06
2023-02-06T05:00:16.000Z,96960.84
2023-02-06T05:02:43.258Z,96958.72
2023-02-06T05:05:10.062Z,96957.44
2023-02-06T05:07:36.896Z,96955.88
2023-02-06T05:10:03.900Z,96970.75
2023-02-06T05:12:30.300Z,96961.16
2023-02-06T05:14:56.933Z,96953.09
2023-02-06T05:17:23.296Z,96967.16
2023-02-06T05:19:50.519Z,96965.88
2023-02-06T05:22:16.965Z,96961.91
2023-02-06T05:24:43.382Z,96962.41
2023-02-06T05:27:09.811Z,96962.88
2023-02-06T05:29:36.250Z,96952.63
2023-02-06T05:32:02.888Z,96946.66
2023-02-06T05:34:29.318Z,96943.34
2023-02-06T05:36:56.404Z,96937.16
2023-02-06T05:39:22.811Z,96935.91
2023-02-06T05:41:49.333Z,96926.03
2023-02-06T05:44:15.734Z,96922.56
2023-02-06T05:46:42.212Z,96925.16
2023-02-06T05:49:08.682Z,96914.47
2023-02-06T05:51:35.549Z,96913.53
2023-02-06T05:54:02.741Z,96919.66
2023-02-06T05:56:29.181Z,96929.09
2023-02-06T05:58:55.621Z,96920.53
2023-02-06T06:01:22.037Z,96910.16
2023-02-06T06:03:48.579Z,96916.31
2023-02-06T06:06:14.978Z,96923.63
2023-02-06T06:08:41.408Z,96917.34
2023-02-06T06:11:11.361Z,96916.16
2023-02-06T06:13:37.831Z,96909.06
2023-02-06T06:16:04.738Z,96918.09
2023-02-06T06:18:31.334Z,96914.09
2023-02-06T06:20:57.855Z,96917.69
2023-02-06T06:23:24.312Z,96917.03
2023-02-06T06:25:50.841Z,96913.50
2023-02-06T06:28:18.113Z,96916.25
2023-02-06T06:30:44.822Z,96923.41
2023-02-06T06:33:13.468Z,96937.06
2023-02-06T06:35:40.031Z,96939.44
2023-02-06T06:38:06.521Z,96932.34
2023-02-06T06:40:33.058Z,96939.06
2023-02-06T06:42:59.550Z,96930.25
2023-02-06T06:45:26.720Z,96925.91
2023-02-06T06:47:53.159Z,96919.13
2023-02-06T06:50:19.672Z,96924.50
2023-02-06T06:52:47.196Z,96940.97
2023-02-06T06:55:13.652Z,96942.22
2023-02-06T06:57:41.760Z,96936.44
2023-02-06T07:00:09.848Z,96943.63
2023-02-06T07:02:40.428Z,96921.34
2023-02-06T07:05:07.208Z,96927.53
2023-02-06T07:07:33.861Z,96936.25
2023-02-06T07:10:00.600Z,96941.72
2023-02-06T07:12:27.638Z,96936.69
2023-02-06T07:14:54.088Z,96937.94
2023-02-06T07:17:20.574Z,96938.88
2023-02-06T07:19:49.962Z,96937.97
2023-02-06T07:22:16.550Z,96934.38
2023-02-06T07:24:42.994Z,96934.75
2023-02-06T07:27:10.174Z,96937.94
2023-02-06T07:29:37.488Z,96944.00
2023-02-06T07:32:04.427Z,96946.72
2023-02-06T07:34:37.022Z,96960.44
2023-02-06T07:37:04.574Z,96960.28
2023-02-06T07:39:30.928Z,96952.47
2023-02-06T07:41:59.295Z,96939.47
2023-02-06T07:44:34.574Z,96955.75
2023-02-06T07:47:01.025Z,96953.03
2023-02-06T07:49:27.460Z,96944.44
2023-02-06T07:51:57.793Z,96944.03
2023-02-06T07:54:25.052Z,96948.66
2023-02-06T07:56:51.513Z,96958.66
2023-02-06T07:59:18.362Z,96964.25
2023-02-06T08:01:44.785Z,96968.16
2023-02-06T08:04:11.873Z,96951.44
2023-02-06T08:06:40.904Z,96955.88
2023-02-06T08:09:07.546Z,96968.69
2023-02-06T08:11:36.216Z,96974.72
2023-02-06T08:14:04.409Z,96981.56
2023-02-06T08:16:31.014Z,96981.25
2023-02-06T08:18:57.456Z,96976.69
2023-02-06T08:21:25.401Z,96980.56
2023-02-06T08:23:56.502Z,96970.84
2023-02-06T08:26:24.177Z,96969.88
2023-02-06T08:29:01.231Z,96973.78
2023-02-06T08:31:30.258Z,96973.63
2023-02-06T08:33:56.877Z,96983.13
2023-02-06T08:36:30.177Z,96990.41
2023-02-06T08:38:57.389Z,96986.59
2023-02-06T08:41:26.516Z,96988.09
2023-02-06T08:43:56.201Z,96984.59
2023-02-06T08:46:24.464Z,96974.66
2023-02-06T08:48:55.042Z,96994.81
2023-02-06T08:51:27.092Z,97022.88
2023-02-06T08:53:57.733Z,96999.56
2023-02-06T08:56:25.104Z,96992.59
2023-02-06T08:58:52.875Z,96989.50
2023-02-06T09:01:20.957Z,96994.22
2023-02-06T09:03:48.219Z,96995.00
2023-02-06T09:06:16.318Z,96989.53
2023-02-06T09:08:42.815Z,96988.63
2023-02-06T09:11:11.527Z,96994.56
2023-02-06T09:13:41.438Z,96990.53
2023-02-06T09:16:08.059Z,96977.91
2023-02-06T09:18:36.149Z,96993.53
2023-02-06T09:21:05.272Z,96997.25
2023-02-06T09:23:31.717Z,96979.41
2023-02-06T09:25:58.236Z,96974.50
2023-02-06T09:28:25.282Z,96983.72
2023-02-06T09:30:52.573Z,96984.66
2023-02-06T09:33:19.284Z,96992.97
2023-02-06T09:35:49.604Z,96988.84
2023-02-06T09:38:16.052Z,96955.94
2023-02-06T09:40:42.512Z,96978.78
2023-02-06T09:43:13.580Z,96982.94
2023-02-06T09:45:41.181Z,96982.25
2023-02-06T09:48:19.545Z,96989.66
2023-02-06T09:50:55.013Z,96998.16
2023-02-06T09:53:30.473Z,96991.16
2023-02-06T09:56:08.148Z,96987.69
2023-02-06T09:58:42.120Z,96978.56
2023-02-06T10:01:16.877Z,96969.56
2023-02-06T10:03:58.548Z,96974.53
2023-02-06T10:06:29.949Z,96965.97
2023-02-06T10:09:01.422Z,96964.88
2023-02-06T10:11:38.235Z,96951.97
2023-02-06T10:14:12.525Z,96963.50
2023-02-06T10:16:44.097Z,96973.63
2023-02-06T10:19:21.176Z,96959.06
2023-02-06T10:21:51.670Z,96959.22
2023-02-06T10:24:26.820Z,96962.03
2023-02-06T10:26:54.088Z,96965.75
2023-02-06T10:29:26.210Z,96950.34
2023-02-06T10:32:03.891Z,96947.56
2023-02-06T10:34:44.702Z,96948.50
2023-02-06T10:37:24.143Z,96950.44
2023-02-06T10:40:12.604Z,96932.91
2023-02-06T10:42:49.540Z,96927.81
2023-02-06T10:45:29.310Z,96925.41
2023-02-06T10:48:02.128Z,96908.78
2023-02-06T10:50:32.510Z,96914.38
2023-02-06T10:53:05.423Z,96898.13
2023-02-06T10:55:41.358Z,96902.94
2023-02-06T10:58:15.711Z,96891.06
2023-02-06T11:00:45.480Z,96900.75
2023-02-06T11:03:18.264Z,96883.75
2023-02-06T11:05:45.719Z,96880.69
2023-02-06T11:08:23.652Z,96884.03
2023-02-06T11:10:54.217Z,96869.81
2023-02-06T11:13:28.766Z,96872.22
2023-02-06T11:16:02.271Z,96884.88
2023-02-06T11:18:33.440Z,96870.53
2023-02-06T11:21:00.501Z,96866.28
2023-02-06T11:23:29.993Z,96861.53
2023-02-06T11:26:04.744Z,96866.16
2023-02-06T11:28:33.981Z,96845.72
2023-02-06T11:31:04.900Z,96851.63
2023-02-06T11:33:38.439Z,96850.00
2023-02-06T11:36:07.189Z,96859.97
2023-02-06T11:38:34.452Z,96850.00
2023-02-06T11:41:04.085Z,96837.66
2023-02-06T11:43:33.295Z,96830.81
2023-02-06T11:46:15.023Z,96829.78
2023-02-06T11:48:43.862Z,96825.25
2023-02-06T11:51:15.827Z,96829.59
2023-02-06T11:53:56.259Z,96825.59
2023-02-06T11:56:23.226Z,96823.41
2023-02-06T11:59:02.252Z,96827.56
2023-02-06T12:01:36.793Z,96823.38
2023-02-06T12:04:03.655Z,96809.66
2023-02-06T12:06:32.700Z,96811.28
2023-02-06T12:09:01.769Z,96809.03
2023-02-06T12:11:34.830Z,96815.09
2023-02-06T12:14:05.202Z,96813.88
2023-02-06T12:16:37.290Z,96800.63
2023-02-06T12:19:10.889Z,96809.50
2023-02-06T12:21:42.489Z,96801.84
2023-02-06T12:24:24.856Z,96812.75
2023-02-06T12:26:53.306Z,96825.72
2023-02-06T12:29:22.768Z,96819.34
2023-02-06T12:31:56.555Z,96818.41
2023-02-06T12:34:27.853Z,96814.91
2023-02-06T12:37:08.052Z,96808.53
2023-02-06T12:39:35.438Z,96803.84
2023-02-06T12:42:20.374Z,96803.50
2023-02-06T12:44:52.076Z,96799.53
2023-02-06T12:47:24.753Z,96774.66
2023-02-06T12:50:00.298Z,96767.44
2023-02-06T12:52:31.027Z,96756.47
2023-02-06T12:55:12.975Z,96760.19
2023-02-06T12:57:39.779Z,96753.34
2023-02-06T13:00:26.909Z,96748.56
2023-02-06T13:03:15.175Z,96754.69
2023-02-06T13:05:44.363Z,96744.41
2023-02-06T13:08:14.489Z,96740.19
2023-02-06T13:10:42.880Z,96748.19
2023-02-06T13:13:26.339Z,96757.81
2023-02-06T13:15:54.916Z,96756.38
2023-02-06T13:18:51.764Z,96739.53
2023-02-06T13:21:22.147Z,96745.94
2023-02-06T13:23:50.450Z,96758.25
2023-02-06T13:26:17.505Z,96760.88
2023-02-06T13:28:59.102Z,96762.16
2023-02-06T13:31:32.974Z,96755.56
2023-02-06T13:34:12.795Z,96765.41
2023-02-06T13:37:01.528Z,96764.56
2023-02-06T13:39:33.119Z,96780.88
2023-02-06T13:42:17.628Z,96771.78
2023-02-06T13:44:44.098Z,96775.75
2023-02-06T13:47:48.882Z,96783.13
2023-02-06T13:50:38.436Z,96782.78
2023-02-06T13:53:33.029Z,96780.13
2023-02-06T13:56:10.907Z,96779.41
2023-02-06T13:58:44.504Z,96782.16
2023-02-06T14:01:15.685Z,96768.59
2023-02-06T14:03:45.569Z,96769.44
2023-02-06T14:06:51.213Z,96771.03
2023-02-06T14:09:35.325Z,96766.47
2023-02-06T14:12:29.757Z,96783.88
2023-02-06T14:15:08.980Z,96777.78
2023-02-06T14:18:04.824Z,96768.09
2023-02-06T14:20:42.013Z,96759.66
2023-02-06T14:23:20.484Z,96756.72
2023-02-06T14:25:58.939Z,96763.47
2023-02-06T14:28:34.451Z,96770.88
2023-02-06T14:31:11.070Z,96769.06
2023-02-06T14:33:49.950Z,96770.22
2023-02-06T14:36:30.039Z,96770.56
2023-02-06T14:39:11.954Z,96754.84
2023-02-06T14:41:38.923Z,96753.84
2023-02-06T14:44:11.118Z,96751.59
2023-02-06T14:46:41.051Z,96753.94
2023-02-06T14:49:15.040Z,96766.66
2023-02-06T14:51:41.536Z,96749.53
2023-02-06T14:54:29.643Z,96754.50
2023-02-06T14:56:57.679Z,96744.13
2023-02-06T14:59:24.805Z,96752.59
2023-02-06T15:01:53.778Z,96732.25
2023-02-06T15:04:21.975Z,96750.16
2023-02-06T15:06:52.036Z,96737.31
2023-02-06T15:09:33.003Z,96729.63
2023-02-06T15:12:03.040Z,96738.75
2023-02-06T15:14:31.832Z,96740.16
2023-02-06T15:17:00.237Z,96745.53
2023-02-06T15:19:28.506Z,96748.06
2023-02-06T15:21:59.260Z,96755.00
2023-02-06T15:24:47.145Z,96758.13
2023-02-06T15:27:22.673Z,96747.16
2023-02-06T15:29:50.037Z,96744.56
2023-02-06T15:32:27.181Z,96747.28
2023-02-06T15:34:54.334Z,96750.38
2023-02-06T15:37:23.306Z,96756.38
2023-02-06T15:39:50.372Z,96756.00
2023-02-06T15:42:19.273Z,96757.53
2023-02-06T15:44:47.253Z,96752.41
2023-02-06T15:47:16.540Z,96750.56
2023-02-06T15:49:45.643Z,96747.75
2023-02-06T15:52:14.021Z,96745.22
2023-02-06T15:54:41.894Z,96739.72
2023-02-06T15:57:23.937Z,96747.34
2023-02-06T15:59:50.578Z,96744.63
2023-02-06T16:02:25.091Z,96752.50
2023-02-06T16:04:53.838Z,96749.25
2023-02-06T16:07:24.088Z,96753.47
2023-02-06T16:09:52.848Z,96754.50
2023-02-06T16:12:20.636Z,96756.06
2023-02-06T16:14:54.706Z,96763.22
2023-02-06T16:17:29.863Z,96756.84
2023-02-06T16:20:01.395Z,96765.66
2023-02-06T16:22:30.296Z,96752.72
2023-02-06T16:25:14.609Z,96760.69
2023-02-06T16:27:44.586Z,96772.03
2023-02-06T16:30:24.235Z,96771.31
2023-02-06T16:32:51.551Z,96777.13
2023-02-06T16:35:18.893Z,96776.66
2023-02-06T16:37:45.306Z,96784.44
2023-02-06T16:40:11.870Z,96793.97
2023-02-06T16:42:40.764Z,96788.50
2023-02-06T16:45:09.617Z,96800.63
2023-02-06T16:47:38.657Z,96799.03
2023-02-06T16:50:05.561Z,96809.13
2023-02-06T16:52:34.058Z,96805.47
2023-02-06T16:55:01.309Z,96815.63
2023-02-06T16:57:31.375Z,96811.94
2023-02-06T16:59:58.348Z,96816.66
2023-02-06T17:02:25.841Z,96818.63
2023-02-06T17:04:52.364Z,96820.25
2023-02-06T17:07:21.169Z,96824.00
2023-02-06T17:09:49.551Z,96825.63
2023-02-06T17:12:17.953Z,96823.94
2023-02-06T17:14:45.050Z,96828.38
2023-02-06T17:17:13.100Z,96845.78
2023-02-06T17:19:40.395Z,96832.44
2023-02-06T17:22:08.022Z,96849.56
2023-02-06T17:24:35.631Z,96857.84
2023-02-06T17:27:03.215Z,96866.38
2023-02-06T17:29:32.067Z,96867.84
2023-02-06T17:31:58.754Z,96864.66
2023-02-06T17:34:26.154Z,96862.53
2023-02-06T17:36:53.306Z,96854.31
2023-02-06T17:39:20.715Z,96856.03
2023-02-06T17:41:47.149Z,96845.50
2023-02-06T17:44:16.236Z,96850.28
2023-02-06T17:46:43.062Z,96838.03
2023-02-06T17:49:09.977Z,96832.66
2023-02-06T17:51:38.198Z,96833.97
2023-02-06T17:54:06.396Z,96835.66
2023-02-06T17:56:33.742Z,96839.41
2023-02-06T17:59:00.211Z,96837.06
2023-02-06T18:01:30.534Z,96836.38
2023-02-06T18:04:01.590Z,96831.16
2023-02-06T18:06:32.464Z,96826.44
2023-02-06T18:08:59.197Z,96827.19
2023-02-06T18:11:25.616Z,96827.50
2023-02-06T18:13:53.137Z,96825.16
2023-02-06T18:16:23.387Z,96827.34
2023-02-06T18:18:50.845Z,96834.81
2023-02-06T18:21:18.762Z,96832.22
2023-02-06T18:23:45.665Z,96829.22
2023-02-06T18:26:12.079Z,96837.50
2023-02-06T18:28:39.545Z,96838.47
2023-02-06T18:31:20.452Z,96838.16
2023-02-06T18:33:47.050Z,96839.69
2023-02-06T18:36:14.468Z,96825.03
2023-02-06T18:38:41.952Z,96828.94
2023-02-06T18:41:28.946Z,96847.50
2023-02-06T18:43:55.418Z,96814.69
2023-02-06T18:46:21.971Z,96814.69
2023-02-06T18:48:48.467Z,96814.59
2023-02-06T18:51:18.587Z,96808.75
2023-02-06T18:53:45.103Z,96808.19
2023-02-06T18:56:11.634Z,96810.16
2023-02-06T18:58:39.946Z,96812.97
2023-02-06T19:01:11.969Z,96799.34
2023-02-06T19:03:39.831Z,96814.69
2023-02-06T19:06:11.774Z,96812.56
2023-02-06T19:08:41.238Z,96829.13
2023-02-06T19:11:09.614Z,96821.84
2023-02-06T19:13:36.757Z,96822.09
2023-02-06T19:16:06.084Z,96799.84
2023-02-06T19:18:38.785Z,96812.59
2023-02-06T19:21:07.849Z,96805.88
2023-02-06T19:23:35.519Z,96813.34
2023-02-06T19:26:05.292Z,96821.06
2023-02-06T19:28:33.719Z,96817.50
2023-02-06T19:31:00.580Z,96827.47
2023-02-06T19:33:28.009Z,96834.47
2023-02-06T19:35:54.461Z,96837.16
2023-02-06T19:38:20.966Z,96836.41
2023-02-06T19:40:47.536Z,96834.00
2023-02-06T19:43:15.759Z,96832.75
2023-02-06T19:45:42.390Z,96827.88
2023-02-06T19:48:13.066Z,96842.66
2023-02-06T19:50:40.160Z,96839.47
2023-02-06T19:53:07.105Z,96843.25
2023-02-06T19:55:33.756Z,96830.06
2023-02-06T19:58:00.337Z,96840.44
2023-02-06T20:00:32.714Z,96819.66
2023-02-06T20:02:59.188Z,96825.09
2023-02-06T20:05:25.749Z,96807.66
2023-02-06T20:07:53.070Z,96810.66
2023-02-06T20:10:20.079Z,96830.09
2023-02-06T20:12:46.621Z,96814.06
2023-02-06T20:15:16.426Z,96825.53
2023-02-06T20:17:43.479Z,96832.59
2023-02-06T20:20:11.264Z,96833.69
2023-02-06T20:22:39.688Z,96827.13
2023-02-06T20:25:07.017Z,96816.63
2023-02-06T20:27:33.773Z,96825.69
2023-02-06T20:30:00.235Z,96819.91
2023-02-06T20:32:26.704Z,96813.34
2023-02-06T20:34:53.975Z,96813.78
2023-02-06T20:37:20.719Z,96817.59
2023-02-06T20:39:48.381Z,96827.56
2023-02-06T20:42:15.061Z,96835.81
2023-02-06T20:44:41.534Z,96858.28
2023-02-06T20:47:09.300Z,96852.53
2023-02-06T20:49:35.716Z,96847.13
2023-02-06T20:52:02.984Z,96849.28
2023-02-06T20:54:29.564Z,96849.19
2023-02-06T20:56:56.312Z,96851.94
2023-02-06T20:59:22.879Z,96845.97
2023-02-06T21:01:49.409Z,96853.25
2023-02-06T21:04:16.837Z,96858.00
2023-02-06T21:06:44.545Z,96847.34
2023-02-06T21:09:11.914Z,96861.97
2023-02-06T21:11:41.387Z,96854.09
2023-02-06T21:14:08.011Z,96857.75
2023-02-06T21:16:36.829Z,96840.50
2023-02-06T21:19:04.774Z,96851.22
2023-02-06T21:21:32.035Z,96843.97
2023-02-06T21:23:58.544Z,96848.47
2023-02-06T21:26:26.932Z,96858.28
2023-02-06T21:28:54.250Z,96854.28
2023-02-06T21:31:31.824Z,96848.78
2023-02-06T21:34:01.898Z,96841.00
2023-02-06T21:36:29.076Z,96830.66
2023-02-06T21:38:55.619Z,96841.66
2023-02-06T21:41:22.027Z,96822.97
2023-02-06T21:43:49.340Z,96849.34
2023-02-06T21:46:15.952Z,96845.06
2023-02-06T21:48:42.485Z,96851.84
2023-02-06T21:51:09.663Z,96849.94
2023-02-06T21:53:36.097Z,96841.44
2023-02-06T21:56:05.434Z,96869.44
2023-02-06T21:58:32.002Z,96849.13
2023-02-06T22:00:59.184Z,96843.50
2023-02-06T22:03:25.667Z,96852.22
2023-02-06T22:05:52.152Z,96847.94
2023-02-06T22:08:18.617Z,96840.78
2023-02-06T22:10:45.094Z,96819.75
2023-02-06T22:13:11.633Z,96824.84
2023-02-06T22:15:38.398Z,96825.78
2023-02-06T22:18:05.734Z,96825.25
2023-02-06T22:20:32.126Z,96818.53
2023-02-06T22:22:58.633Z,96819.25
2023-02-06T22:25:26.079Z,96822.78
2023-02-06T22:27:53.490Z,96818.00
2023-02-06T22:30:20.036Z,96807.00
2023-02-06T22:32:48.949Z,96808.47
2023-02-06T22:35:16.272Z,96802.03
2023-02-06T22:37:44.562Z,96799.75
2023-02-06T22:40:11.495Z,96811.41
2023-02-06T22:42:37.988Z,96799.66
2023-02-06T22:45:05.852Z,96781.63
2023-02-06T22:47:32.435Z,96793.31
2023-02-06T22:49:58.834Z,96790.66
2023-02-06T22:52:45.921Z,96789.84
2023-02-06T22:55:12.475Z,96781.34
2023-02-06T22:57:38.887Z,96790.44
2023-02-06T23:00:10.866Z,96790.69
2023-02-06T23:02:38.152Z,96802.00
2023-02-06T23:05:05.204Z,96796.88
2023-02-06T23:07:34.846Z,96823.25
2023-02-06T23:10:01.409Z,96825.16
2023-02-06T23:12:27.929Z,96822.09
2023-02-06T23:14:54.529Z,96833.81
2023-02-06T23:17:21.055Z,96832.06
2023-02-06T23:19:47.774Z,96831.31
2023-02-06T23:22:14.248Z,96834.09
2023-02-06T23:24:41.379Z,96833.41
2023-02-06T23:27:07.795Z,96834.84
2023-02-06T23:29:34.323Z,96839.41
2023-02-06T23:32:00.762Z,96838.72
2023-02-06T23:34:29.336Z,96846.25
2023-02-06T23:36:55.808Z,96849.59
2023-02-06T23:39:22.246Z,96861.16
2023-02-06T23:41:49.462Z,96859.97
2023-02-06T23:44:16.833Z,96859.25
2023-02-06T23:46:43.353Z,96862.84
2023-02-06T23:49:09.889Z,96875.34
2023-02-06T23:51:37.415Z,96886.53
2023-02-06T23:54:04.897Z,96889.59
2023-02-06T23:56:32.204Z,96891.53
2023-02-06T23:59:00.602Z,96893.31
